sensor_id;sensor_type;location;lat;lon;timestamp;temperature;humidity
7562;DHT22;3822;48.784;9.174;2023-04-06T00:00:44;8.50;43.80
7562;DHT22;3822;48.784;9.174;2023-04-06T00:03:11;8.50;43.80
7562;DHT22;3822;48.784;9.174;2023-04-06T00:05:37;8.50;43.90
7562;DHT22;3822;48.784;9.174;2023-04-06T00:08:04;8.50;44.00
7562;DHT22;3822;48.784;9.174;2023-04-06T00:10:30;8.40;44.10
7562;DHT22;3822;48.784;9.174;2023-04-06T00:12:57;8.40;44.20
7562;DHT22;3822;48.784;9.174;2023-04-06T00:15:26;8.40;44.40
7562;DHT22;3822;48.784;9.174;2023-04-06T00:17:52;8.40;44.50
7562;DHT22;3822;48.784;9.174;2023-04-06T00:20:18;8.40;44.60
7562;DHT22;3822;48.784;9.174;2023-04-06T00:22:45;8.40;44.60
7562;DHT22;3822;48.784;9.174;2023-04-06T00:25:12;8.40;44.60
7562;DHT22;3822;48.784;9.174;2023-04-06T00:27:39;8.40;44.70
7562;DHT22;3822;48.784;9.174;2023-04-06T00:30:05;8.40;44.90
7562;DHT22;3822;48.784;9.174;2023-04-06T00:32:32;8.40;44.90
7562;DHT22;3822;48.784;9.174;2023-04-06T00:34:58;8.30;45.00
7562;DHT22;3822;48.784;9.174;2023-04-06T00:37:24;8.30;45.00
7562;DHT22;3822;48.784;9.174;2023-04-06T00:39:51;8.30;45.20
7562;DHT22;3822;48.784;9.174;2023-04-06T00:42:17;8.30;45.40
7562;DHT22;3822;48.784;9.174;2023-04-06T00:44:58;8.20;45.50
7562;DHT22;3822;48.784;9.174;2023-04-06T00:47:27;8.20;45.80
7562;DHT22;3822;48.784;9.174;2023-04-06T00:49:54;8.20;45.90
7562;DHT22;3822;48.784;9.174;2023-04-06T00:52:20;8.10;46.00
7562;DHT22;3822;48.784;9.174;2023-04-06T00:54:50;8.10;46.30
7562;DHT22;3822;48.784;9.174;2023-04-06T00:57:16;8.10;46.50
7562;DHT22;3822;48.784;9.174;2023-04-06T00:59:45;8.00;46.70
7562;DHT22;3822;48.784;9.174;2023-04-06T01:02:12;8.00;46.70
7562;DHT22;3822;48.784;9.174;2023-04-06T01:04:39;7.90;46.90
7562;DHT22;3822;48.784;9.174;2023-04-06T01:07:05;7.90;46.60
7562;DHT22;3822;48.784;9.174;2023-04-06T01:09:34;7.80;46.50
7562;DHT22;3822;48.784;9.174;2023-04-06T01:12:00;7.80;46.60
7562;DHT22;3822;48.784;9.174;2023-04-06T01:14:26;7.80;46.60
7562;DHT22;3822;48.784;9.174;2023-04-06T01:16:57;7.80;46.80
7562;DHT22;3822;48.784;9.174;2023-04-06T01:19:27;7.80;46.90
7562;DHT22;3822;48.784;9.174;2023-04-06T01:21:56;7.80;47.10
7562;DHT22;3822;48.784;9.174;2023-04-06T01:24:22;7.80;47.30
7562;DHT22;3822;48.784;9.174;2023-04-06T01:26:48;7.80;47.20
7562;DHT22;3822;48.784;9.174;2023-04-06T01:29:16;7.70;47.10
7562;DHT22;3822;48.784;9.174;2023-04-06T01:31:42;7.80;47.30
7562;DHT22;3822;48.784;9.174;2023-04-06T01:34:08;7.70;47.30
7562;DHT22;3822;48.784;9.174;2023-04-06T01:36:35;7.70;47.30
7562;DHT22;3822;48.784;9.174;2023-04-06T01:39:01;7.70;47.30
7562;DHT22;3822;48.784;9.174;2023-04-06T01:41:27;7.70;47.30
7562;DHT22;3822;48.784;9.174;2023-04-06T01:43:54;7.60;47.30
7562;DHT22;3822;48.784;9.174;2023-04-06T01:46:22;7.70;47.40
7562;DHT22;3822;48.784;9.174;2023-04-06T01:48:48;7.70;47.50
7562;DHT22;3822;48.784;9.174;2023-04-06T01:51:15;7.60;47.50
7562;DHT22;3822;48.784;9.174;2023-04-06T01:53:41;7.60;47.60
7562;DHT22;3822;48.784;9.174;2023-04-06T01:56:08;7.60;47.70
7562;DHT22;3822;48.784;9.174;2023-04-06T01:58:36;7.60;47.80
7562;DHT22;3822;48.784;9.174;2023-04-06T02:01:02;7.60;47.90
7562;DHT22;3822;48.784;9.174;2023-04-06T02:03:29;7.60;47.90
7562;DHT22;3822;48.784;9.174;2023-04-06T02:05:57;7.60;48.20
7562;DHT22;3822;48.784;9.174;2023-04-06T02:08:24;7.50;48.00
7562;DHT22;3822;48.784;9.174;2023-04-06T02:10:50;7.50;48.00
7562;DHT22;3822;48.784;9.174;2023-04-06T02:13:16;7.50;47.90
7562;DHT22;3822;48.784;9.174;2023-04-06T02:15:45;7.50;48.00
7562;DHT22;3822;48.784;9.174;2023-04-06T02:18:11;7.40;48.10
7562;DHT22;3822;48.784;9.174;2023-04-06T02:20:37;7.40;47.90
7562;DHT22;3822;48.784;9.174;2023-04-06T02:23:06;7.30;47.90
7562;DHT22;3822;48.784;9.174;2023-04-06T02:25:33;7.30;47.90
7562;DHT22;3822;48.784;9.174;2023-04-06T02:27:59;7.30;47.90
7562;DHT22;3822;48.784;9.174;2023-04-06T02:30:25;7.20;48.00
7562;DHT22;3822;48.784;9.174;2023-04-06T02:32:52;7.20;48.00
7562;DHT22;3822;48.784;9.174;2023-04-06T02:35:18;7.20;48.10
7562;DHT22;3822;48.784;9.174;2023-04-06T02:37:44;7.10;48.20
7562;DHT22;3822;48.784;9.174;2023-04-06T02:40:11;7.10;48.30
7562;DHT22;3822;48.784;9.174;2023-04-06T02:42:37;7.00;48.50
7562;DHT22;3822;48.784;9.174;2023-04-06T02:45:03;6.90;48.50
7562;DHT22;3822;48.784;9.174;2023-04-06T02:47:33;6.90;48.60
7562;DHT22;3822;48.784;9.174;2023-04-06T02:49:59;6.90;48.70
7562;DHT22;3822;48.784;9.174;2023-04-06T02:52:26;6.80;48.70
7562;DHT22;3822;48.784;9.174;2023-04-06T02:54:52;6.80;48.80
7562;DHT22;3822;48.784;9.174;2023-04-06T02:57:18;6.40;48.50
7562;DHT22;3822;48.784;9.174;2023-04-06T02:59:45;6.70;49.10
7562;DHT22;3822;48.784;9.174;2023-04-06T03:02:11;6.70;49.00
7562;DHT22;3822;48.784;9.174;2023-04-06T03:04:38;6.60;49.00
7562;DHT22;3822;48.784;9.174;2023-04-06T03:07:04;6.60;49.10
7562;DHT22;3822;48.784;9.174;2023-04-06T03:09:31;6.60;49.20
7562;DHT22;3822;48.784;9.174;2023-04-06T03:11:57;6.60;49.40
7562;DHT22;3822;48.784;9.174;2023-04-06T03:14:23;6.60;49.50
7562;DHT22;3822;48.784;9.174;2023-04-06T03:16:49;6.50;49.50
7562;DHT22;3822;48.784;9.174;2023-04-06T03:19:16;6.50;49.60
7562;DHT22;3822;48.784;9.174;2023-04-06T03:21:47;6.40;49.50
7562;DHT22;3822;48.784;9.174;2023-04-06T03:24:15;6.40;50.30
7562;DHT22;3822;48.784;9.174;2023-04-06T03:26:44;6.40;49.80
7562;DHT22;3822;48.784;9.174;2023-04-06T03:29:10;6.40;49.70
7562;DHT22;3822;48.784;9.174;2023-04-06T03:31:38;6.40;49.90
7562;DHT22;3822;48.784;9.174;2023-04-06T03:34:05;6.40;49.90
7562;DHT22;3822;48.784;9.174;2023-04-06T03:36:31;6.40;50.50
7562;DHT22;3822;48.784;9.174;2023-04-06T03:39:00;6.40;50.20
7562;DHT22;3822;48.784;9.174;2023-04-06T03:41:26;6.40;50.20
7562;DHT22;3822;48.784;9.174;2023-04-06T03:43:55;6.40;50.20
7562;DHT22;3822;48.784;9.174;2023-04-06T03:46:23;6.30;50.30
7562;DHT22;3822;48.784;9.174;2023-04-06T03:48:54;6.30;50.70
7562;DHT22;3822;48.784;9.174;2023-04-06T03:51:21;6.30;51.00
7562;DHT22;3822;48.784;9.174;2023-04-06T03:53:47;6.20;50.80
7562;DHT22;3822;48.784;9.174;2023-04-06T03:56:13;6.20;50.80
7562;DHT22;3822;48.784;9.174;2023-04-06T03:58:40;6.20;50.90
7562;DHT22;3822;48.784;9.174;2023-04-06T04:01:06;6.20;50.90
7562;DHT22;3822;48.784;9.174;2023-04-06T04:03:33;6.20;50.90
7562;DHT22;3822;48.784;9.174;2023-04-06T04:06:02;6.30;51.00
7562;DHT22;3822;48.784;9.174;2023-04-06T04:08:28;6.20;51.00
7562;DHT22;3822;48.784;9.174;2023-04-06T04:10:55;6.30;51.20
7562;DHT22;3822;48.784;9.174;2023-04-06T04:13:23;6.30;51.20
7562;DHT22;3822;48.784;9.174;2023-04-06T04:15:50;6.30;51.30
7562;DHT22;3822;48.784;9.174;2023-04-06T04:18:16;6.30;51.30
7562;DHT22;3822;48.784;9.174;2023-04-06T04:20:43;6.30;51.40
7562;DHT22;3822;48.784;9.174;2023-04-06T04:23:09;6.30;51.40
7562;DHT22;3822;48.784;9.174;2023-04-06T04:25:35;6.30;51.50
7562;DHT22;3822;48.784;9.174;2023-04-06T04:28:03;6.30;51.60
7562;DHT22;3822;48.784;9.174;2023-04-06T04:30:31;6.30;51.70
7562;DHT22;3822;48.784;9.174;2023-04-06T04:32:58;6.30;51.70
7562;DHT22;3822;48.784;9.174;2023-04-06T04:35:24;6.30;51.90
7562;DHT22;3822;48.784;9.174;2023-04-06T04:37:50;6.30;52.30
7562;DHT22;3822;48.784;9.174;2023-04-06T04:40:17;6.20;52.40
7562;DHT22;3822;48.784;9.174;2023-04-06T04:42:43;6.20;53.10
7562;DHT22;3822;48.784;9.174;2023-04-06T04:45:13;6.10;53.80
7562;DHT22;3822;48.784;9.174;2023-04-06T04:47:41;6.10;53.70
7562;DHT22;3822;48.784;9.174;2023-04-06T04:50:08;6.00;53.80
7562;DHT22;3822;48.784;9.174;2023-04-06T04:52:34;6.00;54.00
7562;DHT22;3822;48.784;9.174;2023-04-06T04:55:01;6.00;54.90
7562;DHT22;3822;48.784;9.174;2023-04-06T04:57:29;6.00;54.40
7562;DHT22;3822;48.784;9.174;2023-04-06T04:59:56;5.90;55.60
7562;DHT22;3822;48.784;9.174;2023-04-06T05:02:27;5.90;55.20
7562;DHT22;3822;48.784;9.174;2023-04-06T05:04:53;5.80;55.30
7562;DHT22;3822;48.784;9.174;2023-04-06T05:07:20;5.80;55.10
7562;DHT22;3822;48.784;9.174;2023-04-06T05:09:49;5.80;55.10
7562;DHT22;3822;48.784;9.174;2023-04-06T05:12:15;5.80;55.90
7562;DHT22;3822;48.784;9.174;2023-04-06T05:14:41;5.80;55.30
7562;DHT22;3822;48.784;9.174;2023-04-06T05:17:08;5.80;55.20
7562;DHT22;3822;48.784;9.174;2023-04-06T05:19:36;5.80;55.40
7562;DHT22;3822;48.784;9.174;2023-04-06T05:22:02;5.80;55.30
7562;DHT22;3822;48.784;9.174;2023-04-06T05:24:29;5.80;55.30
7562;DHT22;3822;48.784;9.174;2023-04-06T05:26:57;5.90;56.00
7562;DHT22;3822;48.784;9.174;2023-04-06T05:29:24;5.90;56.80
7562;DHT22;3822;48.784;9.174;2023-04-06T05:31:50;5.90;58.20
7562;DHT22;3822;48.784;9.174;2023-04-06T05:34:17;6.00;58.00
7562;DHT22;3822;48.784;9.174;2023-04-06T05:36:45;6.00;57.50
7562;DHT22;3822;48.784;9.174;2023-04-06T05:39:14;6.00;56.90
7562;DHT22;3822;48.784;9.174;2023-04-06T05:41:40;6.10;56.60
7562;DHT22;3822;48.784;9.174;2023-04-06T05:44:07;6.10;56.30
7562;DHT22;3822;48.784;9.174;2023-04-06T05:46:33;6.00;56.10
7562;DHT22;3822;48.784;9.174;2023-04-06T05:48:59;6.10;56.10
7562;DHT22;3822;48.784;9.174;2023-04-06T05:51:26;6.00;56.40
7562;DHT22;3822;48.784;9.174;2023-04-06T05:53:53;6.00;56.50
7562;DHT22;3822;48.784;9.174;2023-04-06T05:56:19;6.00;56.40
7562;DHT22;3822;48.784;9.174;2023-04-06T05:58:46;5.90;56.40
7562;DHT22;3822;48.784;9.174;2023-04-06T06:01:12;6.00;56.60
7562;DHT22;3822;48.784;9.174;2023-04-06T06:03:43;5.90;57.10
7562;DHT22;3822;48.784;9.174;2023-04-06T06:06:10;5.80;57.20
7562;DHT22;3822;48.784;9.174;2023-04-06T06:08:36;5.70;57.50
7562;DHT22;3822;48.784;9.174;2023-04-06T06:11:03;5.50;57.40
7562;DHT22;3822;48.784;9.174;2023-04-06T06:13:31;5.50;57.40
7562;DHT22;3822;48.784;9.174;2023-04-06T06:15:57;5.50;57.40
7562;DHT22;3822;48.784;9.174;2023-04-06T06:18:24;5.50;57.60
7562;DHT22;3822;48.784;9.174;2023-04-06T06:20:50;5.60;57.40
7562;DHT22;3822;48.784;9.174;2023-04-06T06:23:16;5.70;57.50
7562;DHT22;3822;48.784;9.174;2023-04-06T06:25:43;5.70;57.40
7562;DHT22;3822;48.784;9.174;2023-04-06T06:28:09;5.80;57.30
7562;DHT22;3822;48.784;9.174;2023-04-06T06:30:39;5.90;57.40
7562;DHT22;3822;48.784;9.174;2023-04-06T06:33:07;6.00;57.40
7562;DHT22;3822;48.784;9.174;2023-04-06T06:35:34;6.10;57.50
7562;DHT22;3822;48.784;9.174;2023-04-06T06:38:02;6.10;57.30
7562;DHT22;3822;48.784;9.174;2023-04-06T06:40:29;6.20;57.20
7562;DHT22;3822;48.784;9.174;2023-04-06T06:42:55;6.30;57.20
7562;DHT22;3822;48.784;9.174;2023-04-06T06:45:21;6.30;57.00
7562;DHT22;3822;48.784;9.174;2023-04-06T06:48:08;6.40;56.90
7562;DHT22;3822;48.784;9.174;2023-04-06T06:50:39;7.60;57.70
7562;DHT22;3822;48.784;9.174;2023-04-06T06:53:05;6.50;56.70
7562;DHT22;3822;48.784;9.174;2023-04-06T06:55:31;6.60;56.60
7562;DHT22;3822;48.784;9.174;2023-04-06T06:57:58;6.60;56.30
7562;DHT22;3822;48.784;9.174;2023-04-06T07:00:32;6.70;56.20
7562;DHT22;3822;48.784;9.174;2023-04-06T07:03:00;6.70;56.00
7562;DHT22;3822;48.784;9.174;2023-04-06T07:05:27;6.70;56.00
7562;DHT22;3822;48.784;9.174;2023-04-06T07:07:54;6.70;56.00
7562;DHT22;3822;48.784;9.174;2023-04-06T07:10:20;6.70;56.10
7562;DHT22;3822;48.784;9.174;2023-04-06T07:12:47;6.70;56.20
7562;DHT22;3822;48.784;9.174;2023-04-06T07:15:13;6.80;56.30
7562;DHT22;3822;48.784;9.174;2023-04-06T07:17:40;6.80;56.30
7562;DHT22;3822;48.784;9.174;2023-04-06T07:20:08;6.80;56.30
7562;DHT22;3822;48.784;9.174;2023-04-06T07:22:34;6.80;56.20
7562;DHT22;3822;48.784;9.174;2023-04-06T07:25:12;6.80;56.20
7562;DHT22;3822;48.784;9.174;2023-04-06T07:27:38;6.90;56.30
7562;DHT22;3822;48.784;9.174;2023-04-06T07:32:34;7.00;56.40
7562;DHT22;3822;48.784;9.174;2023-04-06T07:35:02;7.10;56.30
7562;DHT22;3822;48.784;9.174;2023-04-06T07:37:33;7.20;56.30
7562;DHT22;3822;48.784;9.174;2023-04-06T07:40:01;7.30;56.20
7562;DHT22;3822;48.784;9.174;2023-04-06T07:42:27;7.30;55.90
7562;DHT22;3822;48.784;9.174;2023-04-06T07:44:54;7.40;56.00
7562;DHT22;3822;48.784;9.174;2023-04-06T07:47:20;7.40;55.70
7562;DHT22;3822;48.784;9.174;2023-04-06T07:49:46;7.50;55.60
7562;DHT22;3822;48.784;9.174;2023-04-06T07:52:16;7.50;55.60
7562;DHT22;3822;48.784;9.174;2023-04-06T07:54:42;7.60;55.90
7562;DHT22;3822;48.784;9.174;2023-04-06T07:57:08;7.70;57.50
7562;DHT22;3822;48.784;9.174;2023-04-06T07:59:35;7.70;56.70
7562;DHT22;3822;48.784;9.174;2023-04-06T08:02:03;7.80;56.10
7562;DHT22;3822;48.784;9.174;2023-04-06T08:04:30;7.80;55.90
7562;DHT22;3822;48.784;9.174;2023-04-06T08:06:58;7.90;55.80
7562;DHT22;3822;48.784;9.174;2023-04-06T08:09:24;8.00;55.80
7562;DHT22;3822;48.784;9.174;2023-04-06T08:11:51;8.10;55.80
7562;DHT22;3822;48.784;9.174;2023-04-06T08:14:17;8.90;56.10
7562;DHT22;3822;48.784;9.174;2023-04-06T08:16:49;8.30;55.20
7562;DHT22;3822;48.784;9.174;2023-04-06T08:19:15;8.30;54.90
7562;DHT22;3822;48.784;9.174;2023-04-06T08:21:43;8.40;54.80
7562;DHT22;3822;48.784;9.174;2023-04-06T08:24:09;8.50;54.60
7562;DHT22;3822;48.784;9.174;2023-04-06T08:26:36;8.60;54.50
7562;DHT22;3822;48.784;9.174;2023-04-06T08:29:02;8.60;54.50
7562;DHT22;3822;48.784;9.174;2023-04-06T08:31:30;8.70;54.20
7562;DHT22;3822;48.784;9.174;2023-04-06T08:33:58;8.80;54.20
7562;DHT22;3822;48.784;9.174;2023-04-06T08:36:27;9.00;54.40
7562;DHT22;3822;48.784;9.174;2023-04-06T08:38:53;9.10;54.20
7562;DHT22;3822;48.784;9.174;2023-04-06T08:41:20;9.10;53.70
7562;DHT22;3822;48.784;9.174;2023-04-06T08:43:48;9.20;54.00
7562;DHT22;3822;48.784;9.174;2023-04-06T08:46:15;9.40;54.30
7562;DHT22;3822;48.784;9.174;2023-04-06T08:48:42;9.50;53.60
7562;DHT22;3822;48.784;9.174;2023-04-06T08:51:09;9.60;53.80
7562;DHT22;3822;48.784;9.174;2023-04-06T08:53:36;9.60;53.30
7562;DHT22;3822;48.784;9.174;2023-04-06T08:56:03;9.70;52.70
7562;DHT22;3822;48.784;9.174;2023-04-06T08:58:34;9.70;52.40
7562;DHT22;3822;48.784;9.174;2023-04-06T09:01:03;9.90;52.30
7562;DHT22;3822;48.784;9.174;2023-04-06T09:03:35;9.90;52.90
7562;DHT22;3822;48.784;9.174;2023-04-06T09:06:07;10.10;51.80
7562;DHT22;3822;48.784;9.174;2023-04-06T09:08:39;10.20;51.60
7562;DHT22;3822;48.784;9.174;2023-04-06T09:11:06;10.20;49.80
7562;DHT22;3822;48.784;9.174;2023-04-06T09:13:49;10.20;48.40
7562;DHT22;3822;48.784;9.174;2023-04-06T09:16:16;10.30;49.00
7562;DHT22;3822;48.784;9.174;2023-04-06T09:18:45;10.40;48.50
7562;DHT22;3822;48.784;9.174;2023-04-06T09:21:12;10.40;47.50
7562;DHT22;3822;48.784;9.174;2023-04-06T09:23:38;10.50;48.30
7562;DHT22;3822;48.784;9.174;2023-04-06T09:28:47;10.60;47.10
7562;DHT22;3822;48.784;9.174;2023-04-06T09:31:21;10.70;47.40
7562;DHT22;3822;48.784;9.174;2023-04-06T09:33:48;10.80;47.10
7562;DHT22;3822;48.784;9.174;2023-04-06T09:36:15;10.80;46.40
7562;DHT22;3822;48.784;9.174;2023-04-06T09:38:55;10.90;46.40
7562;DHT22;3822;48.784;9.174;2023-04-06T09:41:23;10.90;46.10
7562;DHT22;3822;48.784;9.174;2023-04-06T09:44:09;11.00;46.50
7562;DHT22;3822;48.784;9.174;2023-04-06T09:46:42;11.10;45.70
7562;DHT22;3822;48.784;9.174;2023-04-06T09:49:10;11.10;44.90
7562;DHT22;3822;48.784;9.174;2023-04-06T09:51:46;11.10;45.20
7562;DHT22;3822;48.784;9.174;2023-04-06T09:54:15;11.20;44.30
7562;DHT22;3822;48.784;9.174;2023-04-06T10:02:53;11.40;42.80
7562;DHT22;3822;48.784;9.174;2023-04-06T10:05:37;11.40;42.30
7562;DHT22;3822;48.784;9.174;2023-04-06T10:08:10;11.40;41.50
7562;DHT22;3822;48.784;9.174;2023-04-06T10:10:37;11.50;41.40
7562;DHT22;3822;48.784;9.174;2023-04-06T10:13:06;11.50;40.90
7562;DHT22;3822;48.784;9.174;2023-04-06T10:15:33;11.60;40.60
7562;DHT22;3822;48.784;9.174;2023-04-06T10:18:00;13.00;41.50
7562;DHT22;3822;48.784;9.174;2023-04-06T10:23:21;11.60;39.90
7562;DHT22;3822;48.784;9.174;2023-04-06T10:25:56;11.70;40.20
7562;DHT22;3822;48.784;9.174;2023-04-06T10:28:24;11.80;40.30
7562;DHT22;3822;48.784;9.174;2023-04-06T10:31:00;11.90;39.70
7562;DHT22;3822;48.784;9.174;2023-04-06T10:33:30;11.90;39.60
7562;DHT22;3822;48.784;9.174;2023-04-06T10:35:56;12.00;39.20
7562;DHT22;3822;48.784;9.174;2023-04-06T10:38:35;12.20;39.60
7562;DHT22;3822;48.784;9.174;2023-04-06T10:41:04;12.20;39.60
7562;DHT22;3822;48.784;9.174;2023-04-06T10:43:35;12.20;39.00
7562;DHT22;3822;48.784;9.174;2023-04-06T10:46:03;12.30;38.60
7562;DHT22;3822;48.784;9.174;2023-04-06T10:48:37;11.50;38.00
7562;DHT22;3822;48.784;9.174;2023-04-06T10:51:07;12.50;38.30
7562;DHT22;3822;48.784;9.174;2023-04-06T10:53:35;12.50;37.40
7562;DHT22;3822;48.784;9.174;2023-04-06T10:56:01;12.50;36.90
7562;DHT22;3822;48.784;9.174;2023-04-06T10:58:31;12.60;37.00
7562;DHT22;3822;48.784;9.174;2023-04-06T11:00:57;12.60;36.40
7562;DHT22;3822;48.784;9.174;2023-04-06T11:03:25;12.70;36.50
7562;DHT22;3822;48.784;9.174;2023-04-06T11:05:53;12.70;36.20
7562;DHT22;3822;48.784;9.174;2023-04-06T11:08:24;12.80;36.10
7562;DHT22;3822;48.784;9.174;2023-04-06T11:11:07;13.00;37.30
7562;DHT22;3822;48.784;9.174;2023-04-06T11:16:06;13.10;36.00
7562;DHT22;3822;48.784;9.174;2023-04-06T11:18:32;13.20;35.60
7562;DHT22;3822;48.784;9.174;2023-04-06T11:20:59;13.30;35.70
7562;DHT22;3822;48.784;9.174;2023-04-06T11:23:25;13.40;36.40
7562;DHT22;3822;48.784;9.174;2023-04-06T11:25:52;13.50;36.00
7562;DHT22;3822;48.784;9.174;2023-04-06T11:28:19;13.60;35.30
7562;DHT22;3822;48.784;9.174;2023-04-06T11:30:46;13.70;34.80
7562;DHT22;3822;48.784;9.174;2023-04-06T11:33:19;13.80;35.50
7562;DHT22;3822;48.784;9.174;2023-04-06T11:35:47;13.90;35.20
7562;DHT22;3822;48.784;9.174;2023-04-06T11:38:13;14.00;34.30
7562;DHT22;3822;48.784;9.174;2023-04-06T11:40:39;14.10;35.30
7562;DHT22;3822;48.784;9.174;2023-04-06T11:43:06;14.20;35.40
7562;DHT22;3822;48.784;9.174;2023-04-06T11:45:43;14.30;34.90
7562;DHT22;3822;48.784;9.174;2023-04-06T11:48:18;14.40;35.30
7562;DHT22;3822;48.784;9.174;2023-04-06T11:50:46;14.50;35.30
7562;DHT22;3822;48.784;9.174;2023-04-06T11:53:13;14.60;35.30
7562;DHT22;3822;48.784;9.174;2023-04-06T11:55:39;14.70;34.70
7562;DHT22;3822;48.784;9.174;2023-04-06T11:58:06;14.80;33.50
7562;DHT22;3822;48.784;9.174;2023-04-06T12:00:32;14.90;34.30
7562;DHT22;3822;48.784;9.174;2023-04-06T12:03:02;15.00;33.90
7562;DHT22;3822;48.784;9.174;2023-04-06T12:05:29;15.20;33.90
7562;DHT22;3822;48.784;9.174;2023-04-06T12:07:55;15.30;33.90
7562;DHT22;3822;48.784;9.174;2023-04-06T12:10:22;15.40;34.30
7562;DHT22;3822;48.784;9.174;2023-04-06T12:12:53;15.60;34.50
7562;DHT22;3822;48.784;9.174;2023-04-06T12:15:19;15.70;33.20
7562;DHT22;3822;48.784;9.174;2023-04-06T12:17:48;15.80;33.20
7562;DHT22;3822;48.784;9.174;2023-04-06T12:20:15;15.90;33.10
7562;DHT22;3822;48.784;9.174;2023-04-06T12:22:41;16.10;33.10
7562;DHT22;3822;48.784;9.174;2023-04-06T12:25:08;16.20;33.30
7562;DHT22;3822;48.784;9.174;2023-04-06T12:27:34;16.30;32.10
7562;DHT22;3822;48.784;9.174;2023-04-06T12:30:01;16.30;29.90
7562;DHT22;3822;48.784;9.174;2023-04-06T12:32:27;16.40;31.00
7562;DHT22;3822;48.784;9.174;2023-04-06T12:34:54;16.40;30.60
7562;DHT22;3822;48.784;9.174;2023-04-06T12:37:22;16.40;30.50
7562;DHT22;3822;48.784;9.174;2023-04-06T12:39:49;16.50;30.80
7562;DHT22;3822;48.784;9.174;2023-04-06T12:42:15;16.60;30.70
7562;DHT22;3822;48.784;9.174;2023-04-06T12:44:41;16.70;30.60
7562;DHT22;3822;48.784;9.174;2023-04-06T12:47:08;16.80;30.50
7562;DHT22;3822;48.784;9.174;2023-04-06T12:49:34;16.90;29.90
7562;DHT22;3822;48.784;9.174;2023-04-06T12:52:03;17.00;30.00
7562;DHT22;3822;48.784;9.174;2023-04-06T12:54:29;17.10;29.70
7562;DHT22;3822;48.784;9.174;2023-04-06T12:56:58;17.20;29.70
7562;DHT22;3822;48.784;9.174;2023-04-06T12:59:27;17.30;30.30
7562;DHT22;3822;48.784;9.174;2023-04-06T13:01:53;17.40;29.20
7562;DHT22;3822;48.784;9.174;2023-04-06T13:04:20;17.50;28.90
7562;DHT22;3822;48.784;9.174;2023-04-06T13:06:46;17.50;29.10
7562;DHT22;3822;48.784;9.174;2023-04-06T13:09:12;17.50;28.40
7562;DHT22;3822;48.784;9.174;2023-04-06T13:11:39;17.50;28.60
7562;DHT22;3822;48.784;9.174;2023-04-06T13:14:07;17.60;28.30
7562;DHT22;3822;48.784;9.174;2023-04-06T13:16:36;17.60;28.00
7562;DHT22;3822;48.784;9.174;2023-04-06T13:19:05;17.50;28.10
7562;DHT22;3822;48.784;9.174;2023-04-06T13:21:32;17.60;28.60
7562;DHT22;3822;48.784;9.174;2023-04-06T13:23:59;17.60;27.90
7562;DHT22;3822;48.784;9.174;2023-04-06T13:26:25;17.50;28.10
7562;DHT22;3822;48.784;9.174;2023-04-06T13:28:55;17.60;27.70
7562;DHT22;3822;48.784;9.174;2023-04-06T13:31:23;17.60;28.40
7562;DHT22;3822;48.784;9.174;2023-04-06T13:33:50;17.70;28.80
7562;DHT22;3822;48.784;9.174;2023-04-06T13:36:18;17.80;28.90
7562;DHT22;3822;48.784;9.174;2023-04-06T13:38:49;17.90;28.90
7562;DHT22;3822;48.784;9.174;2023-04-06T13:41:19;18.00;29.10
7562;DHT22;3822;48.784;9.174;2023-04-06T13:43:49;18.10;27.00
7562;DHT22;3822;48.784;9.174;2023-04-06T13:46:16;18.20;28.10
7562;DHT22;3822;48.784;9.174;2023-04-06T13:48:43;18.30;28.20
7562;DHT22;3822;48.784;9.174;2023-04-06T13:51:12;18.40;28.20
7562;DHT22;3822;48.784;9.174;2023-04-06T13:53:39;18.50;27.60
7562;DHT22;3822;48.784;9.174;2023-04-06T13:56:06;18.40;26.60
7562;DHT22;3822;48.784;9.174;2023-04-06T13:58:35;18.30;27.20
7562;DHT22;3822;48.784;9.174;2023-04-06T14:01:05;18.30;27.10
7562;DHT22;3822;48.784;9.174;2023-04-06T14:03:33;18.20;27.30
7562;DHT22;3822;48.784;9.174;2023-04-06T14:06:09;18.10;26.60
7562;DHT22;3822;48.784;9.174;2023-04-06T14:08:36;18.00;27.40
7562;DHT22;3822;48.784;9.174;2023-04-06T14:11:02;18.10;27.50
7562;DHT22;3822;48.784;9.174;2023-04-06T14:13:31;18.10;26.70
7562;DHT22;3822;48.784;9.174;2023-04-06T14:15:58;18.10;26.80
7562;DHT22;3822;48.784;9.174;2023-04-06T14:18:24;18.00;26.50
7562;DHT22;3822;48.784;9.174;2023-04-06T14:20:57;18.00;26.80
7562;DHT22;3822;48.784;9.174;2023-04-06T14:23:27;18.10;27.00
7562;DHT22;3822;48.784;9.174;2023-04-06T14:26:03;18.10;25.80
7562;DHT22;3822;48.784;9.174;2023-04-06T14:28:34;18.10;26.40
7562;DHT22;3822;48.784;9.174;2023-04-06T14:31:02;18.10;26.80
7562;DHT22;3822;48.784;9.174;2023-04-06T14:33:34;18.20;26.50
7562;DHT22;3822;48.784;9.174;2023-04-06T14:36:04;18.20;26.70
7562;DHT22;3822;48.784;9.174;2023-04-06T14:38:31;18.30;27.00
7562;DHT22;3822;48.784;9.174;2023-04-06T14:40:58;18.30;26.90
7562;DHT22;3822;48.784;9.174;2023-04-06T14:43:24;18.40;27.30
7562;DHT22;3822;48.784;9.174;2023-04-06T14:45:51;18.50;26.80
7562;DHT22;3822;48.784;9.174;2023-04-06T14:48:18;18.50;27.20
7562;DHT22;3822;48.784;9.174;2023-04-06T14:50:51;18.60;26.80
7562;DHT22;3822;48.784;9.174;2023-04-06T14:53:23;18.70;26.70
7562;DHT22;3822;48.784;9.174;2023-04-06T14:55:54;18.70;26.80
7562;DHT22;3822;48.784;9.174;2023-04-06T14:58:24;18.80;27.00
7562;DHT22;3822;48.784;9.174;2023-04-06T15:01:00;18.90;26.20
7562;DHT22;3822;48.784;9.174;2023-04-06T15:03:29;18.90;26.50
7562;DHT22;3822;48.784;9.174;2023-04-06T15:05:56;18.90;25.90
7562;DHT22;3822;48.784;9.174;2023-04-06T15:08:22;18.90;25.50
7562;DHT22;3822;48.784;9.174;2023-04-06T15:10:49;19.00;26.30
7562;DHT22;3822;48.784;9.174;2023-04-06T15:13:16;19.00;26.50
7562;DHT22;3822;48.784;9.174;2023-04-06T15:15:42;19.10;26.40
7562;DHT22;3822;48.784;9.174;2023-04-06T15:18:09;19.10;26.50
7562;DHT22;3822;48.784;9.174;2023-04-06T15:20:39;19.20;26.80
7562;DHT22;3822;48.784;9.174;2023-04-06T15:23:06;19.20;26.90
7562;DHT22;3822;48.784;9.174;2023-04-06T15:25:35;19.30;26.90
7562;DHT22;3822;48.784;9.174;2023-04-06T15:28:07;19.30;26.70
7562;DHT22;3822;48.784;9.174;2023-04-06T15:30:34;19.30;26.60
7562;DHT22;3822;48.784;9.174;2023-04-06T15:33:04;19.30;26.60
7562;DHT22;3822;48.784;9.174;2023-04-06T15:35:32;19.30;26.20
7562;DHT22;3822;48.784;9.174;2023-04-06T15:38:08;19.30;26.00
7562;DHT22;3822;48.784;9.174;2023-04-06T15:40:41;19.20;26.30
7562;DHT22;3822;48.784;9.174;2023-04-06T15:43:09;19.10;26.30
7562;DHT22;3822;48.784;9.174;2023-04-06T15:45:38;19.10;25.90
7562;DHT22;3822;48.784;9.174;2023-04-06T15:48:04;18.90;25.50
7562;DHT22;3822;48.784;9.174;2023-04-06T15:50:31;18.80;25.70
7562;DHT22;3822;48.784;9.174;2023-04-06T15:52:58;18.60;25.00
7562;DHT22;3822;48.784;9.174;2023-04-06T15:55:24;18.50;25.60
7562;DHT22;3822;48.784;9.174;2023-04-06T15:57:51;18.40;26.10
7562;DHT22;3822;48.784;9.174;2023-04-06T16:00:17;18.30;26.20
7562;DHT22;3822;48.784;9.174;2023-04-06T16:02:43;18.20;26.20
7562;DHT22;3822;48.784;9.174;2023-04-06T16:05:10;18.20;26.40
7562;DHT22;3822;48.784;9.174;2023-04-06T16:07:36;18.20;26.60
7562;DHT22;3822;48.784;9.174;2023-04-06T16:10:05;18.20;26.40
7562;DHT22;3822;48.784;9.174;2023-04-06T16:12:32;17.50;26.10
7562;DHT22;3822;48.784;9.174;2023-04-06T16:14:59;18.20;26.80
7562;DHT22;3822;48.784;9.174;2023-04-06T16:17:25;18.10;26.60
7562;DHT22;3822;48.784;9.174;2023-04-06T16:19:52;18.20;26.80
7562;DHT22;3822;48.784;9.174;2023-04-06T16:22:18;18.10;26.80
7562;DHT22;3822;48.784;9.174;2023-04-06T16:24:46;18.00;27.00
7562;DHT22;3822;48.784;9.174;2023-04-06T16:27:12;16.40;26.20
7562;DHT22;3822;48.784;9.174;2023-04-06T16:29:41;17.80;27.50